Flight Track Log - Related Links

Times and Time Zones

All times are in EDT time to prevent confusion due to time zone crossing. See the AFR6719 flight status page for this flight to view local times or setup timezone preferences in your user account.

Time Position Orientation Groundspeed Altitude Reporting Facility
EDT Latitude Longitude Course Direction KTS MPH feet Rate Location/Type
Wed 07:55:02 PM 24.1410 -96.5820 32° Northeast 532 612 41,000  Level FlightAware ADS-B
Wed 07:55:42 PM 24.2290 -96.5200 33° Northeast 532 612 41,000  Level FlightAware ADS-B
Wed 07:56:27 PM 24.3200 -96.4560 33° Northeast 531 611 41,000  Level FlightAware ADS-B
Wed 07:57:07 PM 24.4050 -96.3960 33° Northeast 530 610 41,000  Level FlightAware ADS-B
Wed 07:57:52 PM 24.4940 -96.3330 33° Northeast 528 608 41,000  Level FlightAware ADS-B
Wed 07:58:32 PM 24.5780 -96.2730 33° Northeast 527 606 41,000  Level FlightAware ADS-B
Wed 07:59:12 PM 24.6610 -96.2140 33° Northeast 528 608 41,000  Level FlightAware ADS-B
Wed 07:59:57 PM 24.7520 -96.1500 33° Northeast 528 608 41,000  Level FlightAware ADS-B
Wed 08:00:37 PM 24.8280 -96.0960 33° Northeast 528 608 41,000  Level FlightAware ADS-B
Wed 08:01:17 PM 24.9160 -96.0320 33° Northeast 528 608 41,000  Level FlightAware ADS-B
Wed 08:01:57 PM 24.9930 -95.9770 33° Northeast 528 608 41,000  Level FlightAware ADS-B
Wed 08:02:37 PM 25.0780 -95.9170 33° Northeast 530 610 41,000  Level FlightAware ADS-B
Wed 08:03:27 PM 25.1800 -95.8440 33° Northeast 531 611 41,000  Level FlightAware ADS-B
Wed 08:04:07 PM 25.2670 -95.7810 33° Northeast 531 611 41,000  Level FlightAware ADS-B
Wed 08:04:47 PM 25.3500 -95.7210 33° Northeast 531 611 41,000  Level FlightAware ADS-B
Wed 08:05:32 PM 25.4360 -95.6600 33° Northeast 532 612 41,000  Level FlightAware ADS-B
Wed 08:06:12 PM 25.5270 -95.5930 34° Northeast 532 612 41,000  Level FlightAware ADS-B
Wed 08:06:57 PM 25.6190 -95.5240 34° Northeast 537 618 41,000  Level FlightAware ADS-B
Wed 08:07:37 PM 25.6920 -95.4520 42° Northeast 548 631 41,000  Level FlightAware ADS-B
Wed 08:08:17 PM 25.7640 -95.3730 45° Northeast 548 631 41,000  Level FlightAware ADS-B
Wed 08:09:02 PM 25.8440 -95.2850 45° Northeast 548 631 41,000  Level FlightAware ADS-B
Wed 08:09:42 PM 25.9160 -95.2040 45° Northeast 548 631 41,000  Level FlightAware ADS-B
Wed 08:10:32 PM 25.9990 -95.1140 44° Northeast 548 631 41,000  Level FlightAware ADS-B
Wed 08:11:22 PM 26.0760 -95.0310 44° Northeast 548 631 41,000  Level FlightAware ADS-B
Wed 08:12:02 PM 26.1380 -94.9640 44° Northeast 548 631 41,000  Level FlightAware ADS-B
Wed 08:12:42 PM 26.2000 -94.8970 44° Northeast 548 631 41,000  Level FlightAware ADS-B
Wed 08:13:19 PM 26.3081 -94.7672 47° Northeast 549 632 41,000  Level FlightAware ADS-B
Wed 08:14:07 PM 26.3940 -94.6711 45° Northeast 547 629 41,000  Level FlightAware ADS-B
Wed 08:14:39 PM 26.4505 -94.6075 45° Northeast 548 631 41,000  Level FlightAware ADS-B
Wed 08:15:14 PM 26.5128 -94.5375 45° Northeast 548 631 41,000  Level FlightAware ADS-B
Wed 08:16:06 PM 26.6060 -94.4323 45° Northeast 548 631 41,000  Level FlightAware ADS-B
Wed 08:16:36 PM 26.6601 -94.3712 45° Northeast 547 629 41,000  Level FlightAware ADS-B
Wed 08:17:33 PM 26.7606 -94.2575 45° Northeast 547 629 41,000  Level FlightAware ADS-B
Wed 08:18:22 PM 26.8475 -94.1589 45° Northeast 544 626 41,000  Level FlightAware ADS-B
Wed 08:19:03 PM 26.9194 -94.0772 45° Northeast 545 627 41,000  Level FlightAware ADS-B
Wed 08:19:55 PM 27.0109 -93.9729 45° Northeast 545 627 41,000  Level FlightAware ADS-B
Wed 08:20:26 PM 27.0658 -93.9102 45° Northeast 545 627 41,000  Level FlightAware ADS-B
Wed 08:20:56 PM 27.1197 -93.8485 46° Northeast 545 627 41,000  Level FlightAware ADS-B
Wed 08:21:35 PM 27.1874 -93.7711 45° Northeast 544 626 41,000  Level FlightAware ADS-B
Wed 08:22:05 PM 27.2418 -93.7087 46° Northeast 545 627 41,000  Level FlightAware ADS-B
Wed 08:22:56 PM 27.3310 -93.6062 46° Northeast 545 627 41,000  Level FlightAware ADS-B
Wed 08:24:03 PM 27.4489 -93.4703 46° Northeast 544 626 41,000  Level FlightAware ADS-B
Wed 08:24:38 PM 27.5103 -93.3994 46° Northeast 544 626 41,000  Level FlightAware ADS-B
Wed 08:26:36 PM 27.7173 -93.1594 46° Northeast 41,000  Level FlightAware ADS-B
Wed 08:27:08 PM 27.7739 -93.0936 46° Northeast 545 627 41,000  Level FlightAware ADS-B
Wed 08:27:41 PM 27.8313 -93.0267 46° Northeast 546 628 41,000  Level FlightAware ADS-B
Wed 08:28:16 PM 27.8928 -92.9549 46° Northeast 547 629 41,000  Level FlightAware ADS-B
Wed 08:28:48 PM 27.9491 -92.8891 46° Northeast 547 629 41,000  Level FlightAware ADS-B
Wed 08:33:33 PM 28.4504 -92.2979 46° Northeast 551 634 41,000  Level FlightAware ADS-B
Wed 08:34:04 PM 28.5041 -92.2340 46° Northeast 550 633 41,000  Level FlightAware ADS-B
Wed 08:35:11 PM 28.6219 -92.0936 46° Northeast 550 633 41,000  Level FlightAware ADS-B
Wed 08:35:49 PM 28.6882 -92.0144 46° Northeast 549 632 41,000  Level FlightAware ADS-B
Wed 08:37:02 PM 28.8152 -91.8622 46° Northeast 549 632 41,000  Level FlightAware ADS-B
Wed 08:38:18 PM 28.9481 -91.7024 46° Northeast 550 633 41,000  Level FlightAware ADS-B
Wed 08:39:39 PM 29.0898 -91.5310 47° Northeast 550 633 41,000  Level FlightAware ADS-B
Wed 08:40:10 PM 29.1441 -91.4651 47° Northeast 553 636 41,000  Level FlightAware ADS-B
Wed 08:40:33 PM 29.1706 -91.4300 47° Northeast 552 635 41,000  Level Houston Center
Wed 08:41:34 PM 29.2758 -91.3031 46° Northeast 552 635 41,000  Level Houston Center
Wed 08:47:17 PM 29.8540 -90.5280 46° Northeast 559 643 41,000  Level FlightAware ADS-B
Wed 08:48:02 PM 29.9230 -90.4160 55° Northeast 557 641 41,000  Level FlightAware ADS-B
Wed 08:48:42 PM 29.9830 -90.3210 54° Northeast 556 640 41,000  Level FlightAware ADS-B
Wed 08:49:22 PM 30.0430 -90.2240 54° Northeast 555 639 41,000  Level FlightAware ADS-B
Wed 08:50:07 PM 30.1110 -90.1130 55° Northeast 553 636 41,000  Level FlightAware ADS-B
Wed 08:51:17 PM 30.2070 -89.9590 54° Northeast 547 629 41,000  Level FlightAware ADS-B
Wed 08:51:57 PM 30.2700 -89.8570 54° Northeast 545 627 41,000  Level FlightAware ADS-B
Wed 08:52:37 PM 30.3280 -89.7620 55° Northeast 543 625 41,000  Level FlightAware ADS-B
Wed 08:53:22 PM 30.3960 -89.6500 55° Northeast 544 626 41,000  Level FlightAware ADS-B
Wed 08:54:02 PM 30.4550 -89.5540 54° Northeast 545 627 41,000  Level FlightAware ADS-B
Wed 08:54:47 PM 30.5190 -89.4480 55° Northeast 547 629 41,000  Level FlightAware ADS-B
Wed 08:55:27 PM 30.5780 -89.3520 54° Northeast 547 629 41,000  Level FlightAware ADS-B
Wed 08:56:12 PM 30.6440 -89.2430 55° Northeast 548 631 41,000  Level FlightAware ADS-B
Wed 08:56:52 PM 30.7030 -89.1460 55° Northeast 548 631 41,000  Level FlightAware ADS-B
Wed 08:57:37 PM 30.7670 -89.0390 55° Northeast 548 631 41,000  Level FlightAware ADS-B
Wed 08:58:17 PM 30.8240 -88.9440 55° Northeast 549 632 41,000  Level FlightAware ADS-B
Wed 08:58:57 PM 30.8840 -88.8450 55° Northeast 550 633 41,000  Level FlightAware ADS-B
Wed 08:59:42 PM 30.9500 -88.7350 55° Northeast 551 634 41,000  Level FlightAware ADS-B
Wed 09:00:22 PM 31.0080 -88.6370 55° Northeast 552 635 41,000  Level FlightAware ADS-B
Wed 09:01:07 PM 31.0710 -88.5310 55° Northeast 553 636 41,000  Level FlightAware ADS-B
Wed 09:01:47 PM 31.1260 -88.4260 59° Northeast 554 638 41,000  Level FlightAware ADS-B
Wed 09:02:27 PM 31.1810 -88.3270 57° Northeast 554 638 41,000  Level FlightAware ADS-B
Wed 09:03:07 PM 31.2320 -88.2360 57° Northeast 555 639 41,000  Level FlightAware ADS-B
Wed 09:03:47 PM 31.2800 -88.1500 57° Northeast 555 639 41,000  Level FlightAware ADS-B
Wed 09:04:37 PM 31.3620 -87.9990 58° Northeast 550 633 41,000  Level FlightAware ADS-B
Wed 09:05:17 PM 31.4190 -87.9040 55° Northeast 550 633 41,000  Level FlightAware ADS-B
Wed 09:05:57 PM 31.4790 -87.8080 54° Northeast 550 633 41,000  Level FlightAware ADS-B
Wed 09:06:42 PM 31.5480 -87.6960 54° Northeast 551 634 41,000  Level FlightAware ADS-B
Wed 09:07:22 PM 31.6090 -87.5990 54° Northeast 550 633 41,000  Level FlightAware ADS-B
Wed 09:08:02 PM 31.6680 -87.5040 54° Northeast 551 634 41,000  Level FlightAware ADS-B
Wed 09:08:42 PM 31.7280 -87.4070 54° Northeast 550 633 41,000  Level FlightAware ADS-B
Wed 09:09:42 PM 31.8140 -87.2690 54° Northeast 550 633 41,000  Level FlightAware ADS-B
Wed 09:10:22 PM 31.8650 -87.1870 54° Northeast 550 633 41,000  Level FlightAware ADS-B
Wed 09:11:02 PM 31.9150 -87.1040 55° Northeast 550 633 41,000  Level FlightAware ADS-B
Wed 09:11:52 PM 31.9790 -87.0010 54° Northeast 550 633 41,000  Level FlightAware ADS-B
Wed 09:12:32 PM 32.0300 -86.9190 54° Northeast 550 633 41,000  Level FlightAware ADS-B
Wed 09:13:12 PM 32.0810 -86.8360 54° Northeast 550 633 41,000  Level FlightAware ADS-B
Wed 09:13:52 PM 32.1310 -86.7530 55° Northeast 550 633 41,000  Level FlightAware ADS-B
Wed 09:14:32 PM 32.1820 -86.6710 54° Northeast 550 633 41,000  Level FlightAware ADS-B
Wed 09:15:22 PM 32.2460 -86.5670 54° Northeast 550 633 41,000  Level FlightAware ADS-B
Wed 09:16:02 PM 32.2970 -86.4840 54° Northeast 550 633 41,000  Level FlightAware ADS-B
Wed 09:16:42 PM 32.3480 -86.4020 54° Northeast 550 633 41,000  Level FlightAware ADS-B
Wed 09:17:22 PM 32.3980 -86.3190 54° Northeast 550 633 41,000  Level FlightAware ADS-B
Wed 09:18:02 PM 32.4490 -86.2360 54° Northeast 550 633 41,000  Level FlightAware ADS-B
Wed 09:18:52 PM 32.5130 -86.1320 54° Northeast 550 633 41,000 -8,595 Level FlightAware ADS-B
Wed 09:19:53 PM 32.6769 -85.8403 54° Northeast 498 573 25,100 -8,678 Descending Atlanta Center
Wed 09:20:53 PM 32.7497 -85.7183 55° Northeast 481 554 23,500 -2,200 Descending Atlanta Center
Wed 09:21:53 PM 32.8242 -85.5986 53° Northeast 460 529 20,700 -1,496 Descending Atlanta Center
Wed 09:27:22 PM 33.2090 -84.9940 53° Northeast 396 456 13,800 -1,187 Descending FlightAware ADS-B
Wed 09:28:07 PM 33.2630 -84.9230 48° Northeast 390 449 13,300 -353 Descending FlightAware ADS-B
Wed 09:28:47 PM 33.3040 -84.8690 48° Northeast 390 449 13,300 -988 Level FlightAware ADS-B
Wed 09:29:32 PM 33.3630 -84.7900 48° Northeast 385 443 11,900 -1,108 Descending FlightAware ADS-B
Wed 09:29:52 PM 33.3833 -84.7500 90° East 380 437 12,100 -133 Climbing Atlanta TRACON
Wed 09:30:17 PM 33.4160 -84.7190 48° Northeast 378 435 11,800 -277 Descending FlightAware ADS-B
Wed 09:30:57 PM 33.4630 -84.6560 48° Northeast 383 441 11,800  Level FlightAware ADS-B
Wed 09:31:37 PM 33.5110 -84.5920 48° Northeast 11,800  Level FlightAware ADS-B
Wed 09:32:17 PM 33.5430 -84.5290 59° Northeast 321 369 11,800 -667 Level FlightAware ADS-B
Wed 09:35:00 PM 33.6367 -84.4279 90° East  Level Estimated
Wed 09:35:22 PM 33.5450 -84.2390 90° East 267 307 9,300  Level FlightAware ADS-B
Wed 09:35:52 PM 33.5450 -84.2020 90° East 267 307 9,300  Level FlightAware ADS-B
Wed 09:36:22 PM 33.5450 -84.1640 90° East 267 307 9,300  Level FlightAware ADS-B
Wed 09:36:42 PM 33.5450 -84.1390 90° East 267 307 9,300 -3,143 Level FlightAware ADS-B
Wed 09:37:46 PM 33.5833 -84.1000 90° East 213 245 4,900 -2,797 Descending Atlanta TRACON
Wed 09:38:40 PM 33.6167 -84.1333 320° Northwest 172 198 3,800 -667 Descending Atlanta TRACON
Wed 09:39:52 PM 33.6333 -84.2000 287° West 165 190 3,500 -136 Descending Atlanta TRACON
Wed 09:40:52 PM 33.6333 -84.2500 270° West 166 191 3,500 -368 Level Atlanta TRACON
Wed 09:41:46 PM 33.6333 -84.3000 270° West 162 186 2,800 -737 Descending Atlanta TRACON
Wed 09:42:46 PM 33.6333 -84.3500 270° West 133 153 2,100 -667 Descending Atlanta TRACON
Wed 09:43:52 PM 33.6333 -84.4000 270° West 129 148 1,400 -636 Descending Atlanta TRACON
Wed 09:45:00 PM 33.6333 -84.4167 301° West  Level FlightAware Approximate
Wed 09:52:00 PM 33.6367 -84.4279 301° West  Level Estimated

Login

Don't have an account? Register now (free) for customized features, flight alerts, and more!